Wolfforth, Texas
Current Conditions -  °F | °C
As of 12:23 PM on Friday 19 Dec 2014 (Local Time) from KLBB Reporting Station
Haze Haze  
Wind Chill: 34°   Ceiling: 400
Heat Index: 38°   Visibility: 5mi
Dew Point: 37°   Wind: 5mph
Humidity: 97%   Direction: 210°SSW
Pressure: 30.16"   Gusts: NA
Location:  33.51°N, 102.01°W
Report Text: KLBB 191823Z 21004KT 5SM BR FEW000 OVC004 03/03 A3016 RMK AO2 BR FEW000 T00330028
Loading
Personal Weather Stations






























Interactive Weather Map New forecast layout! Learn more

10-Day Weather Forecast

Advertisements
Track Severe Weather on mobile